Whitecourt Airport
CYZU : rendu visible

Aérodrome :











RETROUVEZ-NOUS SUR...

 
LOGIN :

S'inscrire | Disclaimer

   EN    FR    IT 

 









Légende :    VFR   VFR Marginal   IFR   IFR Intensif   IFR Très Intensif
Visi : 
Plafond : 
>= 8 km
>= 3000ft
5 à 8 km
1000 à 3000 ft
1500m à 5 km
500 à 1000 ft
800 à 1500m
200 à 500 ft
< 800m
< 200 ft
Symboles :   Orages  Brouillard  Fortes neiges  Fortes précipitations  Vent > 20 kt






- Altitude de l'aérodrome : 2567 ft
- Code IATA : YZU


CYZU - Whitecourt

DERNIER METAR :
  • 232000Z 00000KT 15SM FEW200 M01/M14 A2980 RMK CI2 SLP132

METARs EXPIRÉS :
  • 231900Z 00000KT 15SM FEW200 M04/M15 A2982 RMK CI2 SLP140
  • 231800Z 00000KT 15SM SCT200 M06/M16 A2984 RMK CI3 SLP147

TAF TAF CYZU
Valide du 23 à 19h jusqu'au 23 à 23h UTC


231838Z 2319/2323 VRB03KT P6SM SCT200 RMK NXT FCST WILL BE ISSUED AT 241415Z



MET'MAP, la Météo Aéronautique d'un coup d'oeil ! - Copyright ORBIFLY Décembre 2007 - Disclaimer

ORBIFLY MET'MAP TEAM :

Programmation & Développement : Alexandra Zaïnal
Sur une idée originale de : Baudouin d'Aumeries
Assistance à la programmation : Marc-Olivier Méhu
Soutien technique & logistique : Manuel Goepfert

Contact : metmap@orbifly.com




SOURCES & CREDITS :

   NOAA       Earth
Advisory